sensor_id;sensor_type;location;lat;lon;timestamp;pressure;altitude;pressure_sealevel;temperature;humidity
50430;BME280;36359;41.556;-8.418;2022-09-09T00:02:20;100471.28;;;18.46;100.00
50430;BME280;36359;41.556;-8.418;2022-09-09T00:07:47;100472.06;;;19.18;100.00
50430;BME280;36359;41.556;-8.418;2022-09-09T00:10:29;100475.13;;;19.43;100.00
50430;BME280;36359;41.556;-8.418;2022-09-09T00:15:37;100482.72;;;19.76;100.00
50430;BME280;36359;41.556;-8.418;2022-09-09T00:18:16;100476.34;;;19.68;100.00
50430;BME280;36359;41.556;-8.418;2022-09-09T00:23:30;100476.78;;;19.79;99.08
50430;BME280;36359;41.556;-8.418;2022-09-09T00:28:29;100483.16;;;19.79;99.12
50430;BME280;36359;41.556;-8.418;2022-09-09T00:31:14;100483.28;;;19.64;100.00
50430;BME280;36359;41.556;-8.418;2022-09-09T00:33:42;100487.41;;;19.40;100.00
50430;BME280;36359;41.556;-8.418;2022-09-09T00:36:18;100476.53;;;18.91;100.00
50430;BME280;36359;41.556;-8.418;2022-09-09T00:38:52;100480.28;;;18.83;100.00
50430;BME280;36359;41.556;-8.418;2022-09-09T00:52:12;100472.19;;;18.53;100.00
50430;BME280;36359;41.556;-8.418;2022-09-09T00:54:55;100490.47;;;18.18;100.00
50430;BME280;36359;41.556;-8.418;2022-09-09T00:57:30;100483.00;;;18.33;100.00
50430;BME280;36359;41.556;-8.418;2022-09-09T01:00:29;100480.53;;;18.38;100.00
50430;BME280;36359;41.556;-8.418;2022-09-09T01:08:57;100485.03;;;18.25;100.00
50430;BME280;36359;41.556;-8.418;2022-09-09T01:14:14;100478.16;;;17.92;100.00
50430;BME280;36359;41.556;-8.418;2022-09-09T01:16:44;100485.38;;;18.15;100.00
50430;BME280;36359;41.556;-8.418;2022-09-09T01:19:20;100471.56;;;18.79;100.00
50430;BME280;36359;41.556;-8.418;2022-09-09T01:22:15;100480.59;;;19.29;100.00
50430;BME280;36359;41.556;-8.418;2022-09-09T01:28:25;100485.13;;;19.09;100.00
50430;BME280;36359;41.556;-8.418;2022-09-09T01:30:57;100481.75;;;19.14;100.00
50430;BME280;36359;41.556;-8.418;2022-09-09T01:33:26;100481.47;;;19.02;100.00
50430;BME280;36359;41.556;-8.418;2022-09-09T01:36:08;100482.97;;;18.76;100.00
50430;BME280;36359;41.556;-8.418;2022-09-09T01:38:43;100469.91;;;19.13;100.00
50430;BME280;36359;41.556;-8.418;2022-09-09T01:41:09;100480.31;;;19.18;100.00
50430;BME280;36359;41.556;-8.418;2022-09-09T01:43:43;100476.41;;;19.40;100.00
50430;BME280;36359;41.556;-8.418;2022-09-09T01:46:09;100466.19;;;19.69;98.89
50430;BME280;36359;41.556;-8.418;2022-09-09T01:48:36;100468.72;;;19.70;99.83
50430;BME280;36359;41.556;-8.418;2022-09-09T01:51:07;100464.56;;;19.46;100.00
50430;BME280;36359;41.556;-8.418;2022-09-09T01:53:32;100472.13;;;19.72;98.71
50430;BME280;36359;41.556;-8.418;2022-09-09T02:02:13;100457.53;;;19.37;100.00
50430;BME280;36359;41.556;-8.418;2022-09-09T02:04:54;100467.31;;;19.05;100.00
50430;BME280;36359;41.556;-8.418;2022-09-09T02:07:42;100469.69;;;19.15;100.00
50430;BME280;36359;41.556;-8.418;2022-09-09T02:10:45;100467.72;;;19.37;100.00
50430;BME280;36359;41.556;-8.418;2022-09-09T02:13:24;100470.69;;;19.42;100.00
50430;BME280;36359;41.556;-8.418;2022-09-09T02:16:07;100465.28;;;19.20;100.00
50430;BME280;36359;41.556;-8.418;2022-09-09T02:21:12;100456.78;;;18.80;100.00
50430;BME280;36359;41.556;-8.418;2022-09-09T02:23:41;100458.38;;;18.68;100.00
50430;BME280;36359;41.556;-8.418;2022-09-09T02:26:11;100456.97;;;18.51;100.00
50430;BME280;36359;41.556;-8.418;2022-09-09T02:28:40;100459.84;;;18.43;100.00
50430;BME280;36359;41.556;-8.418;2022-09-09T02:31:07;100454.78;;;18.46;100.00
50430;BME280;36359;41.556;-8.418;2022-09-09T02:33:40;100459.16;;;18.62;100.00
50430;BME280;36359;41.556;-8.418;2022-09-09T02:36:08;100462.94;;;18.82;100.00
50430;BME280;36359;41.556;-8.418;2022-09-09T02:38:40;100463.38;;;18.65;100.00
50430;BME280;36359;41.556;-8.418;2022-09-09T02:41:12;100460.75;;;18.50;100.00
50430;BME280;36359;41.556;-8.418;2022-09-09T02:43:38;100461.16;;;18.25;100.00
50430;BME280;36359;41.556;-8.418;2022-09-09T02:46:11;100463.91;;;18.25;100.00
50430;BME280;36359;41.556;-8.418;2022-09-09T02:51:22;100462.78;;;18.41;100.00
50430;BME280;36359;41.556;-8.418;2022-09-09T02:56:40;100459.03;;;18.49;100.00
50430;BME280;36359;41.556;-8.418;2022-09-09T02:59:07;100455.25;;;18.50;100.00
50430;BME280;36359;41.556;-8.418;2022-09-09T03:01:35;100454.81;;;19.02;100.00
50430;BME280;36359;41.556;-8.418;2022-09-09T03:04:02;100448.06;;;19.05;100.00
50430;BME280;36359;41.556;-8.418;2022-09-09T03:06:30;100447.59;;;18.95;100.00
50430;BME280;36359;41.556;-8.418;2022-09-09T03:09:05;100444.47;;;18.76;100.00
50430;BME280;36359;41.556;-8.418;2022-09-09T03:11:31;100444.38;;;18.63;100.00
50430;BME280;36359;41.556;-8.418;2022-09-09T03:13:57;100447.31;;;18.61;100.00
50430;BME280;36359;41.556;-8.418;2022-09-09T03:16:25;100450.63;;;18.50;100.00
50430;BME280;36359;41.556;-8.418;2022-09-09T03:18:52;100452.13;;;18.31;100.00
50430;BME280;36359;41.556;-8.418;2022-09-09T03:21:21;100456.34;;;18.27;100.00
50430;BME280;36359;41.556;-8.418;2022-09-09T03:23:49;100450.84;;;18.27;100.00
50430;BME280;36359;41.556;-8.418;2022-09-09T03:26:15;100449.50;;;18.23;100.00
50430;BME280;36359;41.556;-8.418;2022-09-09T03:28:44;100453.44;;;18.14;100.00
50430;BME280;36359;41.556;-8.418;2022-09-09T03:31:10;100446.38;;;18.26;100.00
50430;BME280;36359;41.556;-8.418;2022-09-09T03:33:39;100448.94;;;18.77;100.00
50430;BME280;36359;41.556;-8.418;2022-09-09T03:36:07;100450.28;;;19.23;100.00
50430;BME280;36359;41.556;-8.418;2022-09-09T03:38:34;100444.03;;;19.01;100.00
50430;BME280;36359;41.556;-8.418;2022-09-09T03:41:00;100447.09;;;18.84;100.00
50430;BME280;36359;41.556;-8.418;2022-09-09T03:43:28;100439.53;;;18.65;100.00
50430;BME280;36359;41.556;-8.418;2022-09-09T03:45:55;100453.84;;;18.60;100.00
50430;BME280;36359;41.556;-8.418;2022-09-09T03:48:23;100446.59;;;18.74;100.00
50430;BME280;36359;41.556;-8.418;2022-09-09T03:50:52;100434.59;;;18.82;100.00
50430;BME280;36359;41.556;-8.418;2022-09-09T03:53:21;100440.94;;;19.17;100.00
50430;BME280;36359;41.556;-8.418;2022-09-09T03:55:49;100446.09;;;19.34;100.00
50430;BME280;36359;41.556;-8.418;2022-09-09T03:58:18;100450.06;;;19.18;100.00
50430;BME280;36359;41.556;-8.418;2022-09-09T04:01:16;100445.47;;;18.97;100.00
50430;BME280;36359;41.556;-8.418;2022-09-09T04:03:43;100447.75;;;18.87;100.00
50430;BME280;36359;41.556;-8.418;2022-09-09T04:06:13;100438.13;;;19.52;98.29
50430;BME280;36359;41.556;-8.418;2022-09-09T04:08:42;100437.88;;;19.40;99.71
50430;BME280;36359;41.556;-8.418;2022-09-09T04:11:09;100443.94;;;18.88;100.00
50430;BME280;36359;41.556;-8.418;2022-09-09T04:13:37;100440.84;;;18.97;100.00
50430;BME280;36359;41.556;-8.418;2022-09-09T04:16:06;100446.91;;;18.86;100.00
50430;BME280;36359;41.556;-8.418;2022-09-09T04:18:36;100457.78;;;19.01;100.00
50430;BME280;36359;41.556;-8.418;2022-09-09T04:21:02;100452.22;;;19.29;99.86
50430;BME280;36359;41.556;-8.418;2022-09-09T04:23:30;100449.31;;;19.02;100.00
50430;BME280;36359;41.556;-8.418;2022-09-09T04:25:58;100447.66;;;19.08;100.00
50430;BME280;36359;41.556;-8.418;2022-09-09T04:28:27;100439.25;;;18.81;100.00
50430;BME280;36359;41.556;-8.418;2022-09-09T04:30:54;100434.66;;;18.67;100.00
50430;BME280;36359;41.556;-8.418;2022-09-09T04:33:21;100434.53;;;18.47;100.00
50430;BME280;36359;41.556;-8.418;2022-09-09T04:35:49;100441.91;;;18.47;100.00
50430;BME280;36359;41.556;-8.418;2022-09-09T04:38:17;100434.53;;;18.47;100.00
50430;BME280;36359;41.556;-8.418;2022-09-09T04:40:46;100431.75;;;18.19;100.00
50430;BME280;36359;41.556;-8.418;2022-09-09T04:43:13;100428.50;;;18.09;100.00
50430;BME280;36359;41.556;-8.418;2022-09-09T04:45:47;100440.09;;;18.11;100.00
50430;BME280;36359;41.556;-8.418;2022-09-09T04:48:14;100439.66;;;18.07;100.00
50430;BME280;36359;41.556;-8.418;2022-09-09T04:50:40;100436.66;;;18.02;100.00
50430;BME280;36359;41.556;-8.418;2022-09-09T04:53:09;100432.88;;;18.03;100.00
50430;BME280;36359;41.556;-8.418;2022-09-09T04:55:36;100442.53;;;17.99;100.00
50430;BME280;36359;41.556;-8.418;2022-09-09T04:58:05;100444.81;;;17.96;100.00
50430;BME280;36359;41.556;-8.418;2022-09-09T05:00:32;100442.84;;;17.89;100.00
50430;BME280;36359;41.556;-8.418;2022-09-09T05:03:03;100444.16;;;17.93;100.00
50430;BME280;36359;41.556;-8.418;2022-09-09T05:05:29;100446.00;;;17.86;100.00
50430;BME280;36359;41.556;-8.418;2022-09-09T05:08:04;100439.00;;;17.84;100.00
50430;BME280;36359;41.556;-8.418;2022-09-09T05:10:30;100435.69;;;17.88;100.00
50430;BME280;36359;41.556;-8.418;2022-09-09T05:15:31;100443.38;;;18.00;100.00
50430;BME280;36359;41.556;-8.418;2022-09-09T05:17:58;100440.69;;;17.85;100.00
50430;BME280;36359;41.556;-8.418;2022-09-09T05:20:25;100447.06;;;17.85;100.00
50430;BME280;36359;41.556;-8.418;2022-09-09T05:22:55;100448.38;;;17.75;100.00
50430;BME280;36359;41.556;-8.418;2022-09-09T05:25:23;100451.44;;;17.65;100.00
50430;BME280;36359;41.556;-8.418;2022-09-09T05:27:53;100443.84;;;17.67;100.00
50430;BME280;36359;41.556;-8.418;2022-09-09T05:30:20;100454.69;;;17.90;100.00
50430;BME280;36359;41.556;-8.418;2022-09-09T05:32:46;100455.00;;;17.80;100.00
50430;BME280;36359;41.556;-8.418;2022-09-09T05:35:13;100447.38;;;17.97;100.00
50430;BME280;36359;41.556;-8.418;2022-09-09T05:37:39;100452.59;;;17.92;100.00
50430;BME280;36359;41.556;-8.418;2022-09-09T05:40:05;100452.53;;;17.85;100.00
50430;BME280;36359;41.556;-8.418;2022-09-09T05:42:31;100446.53;;;18.18;100.00
50430;BME280;36359;41.556;-8.418;2022-09-09T05:44:58;100445.94;;;18.23;100.00
50430;BME280;36359;41.556;-8.418;2022-09-09T05:47:25;100448.78;;;18.14;100.00
50430;BME280;36359;41.556;-8.418;2022-09-09T05:49:54;100446.66;;;18.10;100.00
50430;BME280;36359;41.556;-8.418;2022-09-09T05:52:21;100455.41;;;18.20;100.00
50430;BME280;36359;41.556;-8.418;2022-09-09T05:54:48;100460.59;;;18.58;100.00
50430;BME280;36359;41.556;-8.418;2022-09-09T05:57:13;100457.59;;;18.53;100.00
50430;BME280;36359;41.556;-8.418;2022-09-09T05:59:39;100450.94;;;18.62;100.00
50430;BME280;36359;41.556;-8.418;2022-09-09T06:02:05;100459.56;;;18.59;100.00
50430;BME280;36359;41.556;-8.418;2022-09-09T06:04:34;100462.50;;;18.57;100.00
50430;BME280;36359;41.556;-8.418;2022-09-09T06:07:01;100461.09;;;18.90;100.00
50430;BME280;36359;41.556;-8.418;2022-09-09T06:09:29;100465.28;;;19.20;100.00
50430;BME280;36359;41.556;-8.418;2022-09-09T06:11:55;100459.91;;;19.05;100.00
50430;BME280;36359;41.556;-8.418;2022-09-09T06:14:23;100458.75;;;18.87;100.00
50430;BME280;36359;41.556;-8.418;2022-09-09T06:16:52;100459.00;;;18.70;100.00
50430;BME280;36359;41.556;-8.418;2022-09-09T06:19:21;100466.63;;;18.47;100.00
50430;BME280;36359;41.556;-8.418;2022-09-09T06:21:47;100457.53;;;18.46;100.00
50430;BME280;36359;41.556;-8.418;2022-09-09T06:24:15;100474.16;;;18.38;100.00
50430;BME280;36359;41.556;-8.418;2022-09-09T06:26:43;100477.84;;;18.24;100.00
50430;BME280;36359;41.556;-8.418;2022-09-09T06:29:14;100475.28;;;18.22;100.00
50430;BME280;36359;41.556;-8.418;2022-09-09T06:31:41;100474.09;;;18.31;100.00
50430;BME280;36359;41.556;-8.418;2022-09-09T06:34:13;100478.81;;;18.16;100.00
50430;BME280;36359;41.556;-8.418;2022-09-09T06:36:44;100484.97;;;18.18;100.00
50430;BME280;36359;41.556;-8.418;2022-09-09T06:39:11;100489.69;;;18.24;100.00
50430;BME280;36359;41.556;-8.418;2022-09-09T06:41:39;100489.28;;;18.49;100.00
50430;BME280;36359;41.556;-8.418;2022-09-09T06:44:09;100492.09;;;18.34;100.00
50430;BME280;36359;41.556;-8.418;2022-09-09T06:46:41;100487.13;;;18.23;100.00
50430;BME280;36359;41.556;-8.418;2022-09-09T06:49:08;100490.53;;;18.25;100.00
50430;BME280;36359;41.556;-8.418;2022-09-09T06:51:37;100500.53;;;18.32;100.00
50430;BME280;36359;41.556;-8.418;2022-09-09T06:54:08;100496.75;;;18.33;100.00
50430;BME280;36359;41.556;-8.418;2022-09-09T06:56:36;100501.56;;;18.31;100.00
50430;BME280;36359;41.556;-8.418;2022-09-09T06:59:08;100501.69;;;18.23;100.00
50430;BME280;36359;41.556;-8.418;2022-09-09T07:01:37;100497.38;;;18.14;100.00
50430;BME280;36359;41.556;-8.418;2022-09-09T07:04:08;100507.03;;;17.88;100.00
50430;BME280;36359;41.556;-8.418;2022-09-09T07:06:44;100500.25;;;18.06;100.00
50430;BME280;36359;41.556;-8.418;2022-09-09T07:09:15;100498.16;;;18.29;100.00
50430;BME280;36359;41.556;-8.418;2022-09-09T07:11:50;100510.09;;;18.15;100.00
50430;BME280;36359;41.556;-8.418;2022-09-09T07:14:20;100511.88;;;18.08;100.00
50430;BME280;36359;41.556;-8.418;2022-09-09T07:16:51;100511.09;;;18.14;100.00
50430;BME280;36359;41.556;-8.418;2022-09-09T07:19:18;100508.47;;;18.21;100.00
50430;BME280;36359;41.556;-8.418;2022-09-09T07:21:46;100507.50;;;17.92;100.00
50430;BME280;36359;41.556;-8.418;2022-09-09T07:24:18;100514.84;;;18.06;100.00
50430;BME280;36359;41.556;-8.418;2022-09-09T07:26:46;100512.94;;;18.07;100.00
50430;BME280;36359;41.556;-8.418;2022-09-09T07:29:12;100513.59;;;18.09;100.00
50430;BME280;36359;41.556;-8.418;2022-09-09T07:31:41;100511.75;;;17.95;100.00
50430;BME280;36359;41.556;-8.418;2022-09-09T07:34:11;100520.28;;;17.85;100.00
50430;BME280;36359;41.556;-8.418;2022-09-09T07:36:39;100521.59;;;18.25;100.00
50430;BME280;36359;41.556;-8.418;2022-09-09T07:39:09;100517.22;;;18.31;100.00
50430;BME280;36359;41.556;-8.418;2022-09-09T07:41:40;100525.00;;;18.27;100.00
50430;BME280;36359;41.556;-8.418;2022-09-09T07:44:12;100532.06;;;18.36;100.00
50430;BME280;36359;41.556;-8.418;2022-09-09T07:46:40;100528.47;;;18.36;100.00
50430;BME280;36359;41.556;-8.418;2022-09-09T07:49:09;100527.81;;;18.34;100.00
50430;BME280;36359;41.556;-8.418;2022-09-09T07:51:39;100528.13;;;18.24;100.00
50430;BME280;36359;41.556;-8.418;2022-09-09T07:54:07;100530.53;;;18.12;100.00
50430;BME280;36359;41.556;-8.418;2022-09-09T07:56:38;100530.94;;;18.09;100.00
50430;BME280;36359;41.556;-8.418;2022-09-09T07:59:05;100529.53;;;17.99;100.00
50430;BME280;36359;41.556;-8.418;2022-09-09T08:01:35;100537.34;;;17.80;100.00
50430;BME280;36359;41.556;-8.418;2022-09-09T08:04:07;100532.56;;;18.04;100.00
50430;BME280;36359;41.556;-8.418;2022-09-09T08:06:37;100533.22;;;18.27;100.00
50430;BME280;36359;41.556;-8.418;2022-09-09T08:09:04;100523.59;;;18.16;100.00
50430;BME280;36359;41.556;-8.418;2022-09-09T08:11:32;100528.13;;;18.24;100.00
50430;BME280;36359;41.556;-8.418;2022-09-09T08:16:38;100535.19;;;18.33;100.00
50430;BME280;36359;41.556;-8.418;2022-09-09T08:19:05;100530.66;;;18.26;100.00
50430;BME280;36359;41.556;-8.418;2022-09-09T08:21:36;100539.41;;;18.14;100.00
50430;BME280;36359;41.556;-8.418;2022-09-09T08:24:04;100532.63;;;18.10;100.00
50430;BME280;36359;41.556;-8.418;2022-09-09T08:26:33;100543.94;;;18.44;100.00
50430;BME280;36359;41.556;-8.418;2022-09-09T08:29:02;100528.00;;;18.54;100.00
50430;BME280;36359;41.556;-8.418;2022-09-09T08:31:31;100532.50;;;18.40;100.00
50430;BME280;36359;41.556;-8.418;2022-09-09T08:33:58;100536.50;;;18.37;100.00
50430;BME280;36359;41.556;-8.418;2022-09-09T08:36:35;100534.53;;;18.31;100.00
50430;BME280;36359;41.556;-8.418;2022-09-09T08:39:04;100545.13;;;18.34;100.00
50430;BME280;36359;41.556;-8.418;2022-09-09T08:46:55;100551.53;;;18.63;100.00
50430;BME280;36359;41.556;-8.418;2022-09-09T08:52:27;100558.53;;;19.43;98.03
50430;BME280;36359;41.556;-8.418;2022-09-09T08:55:01;100563.22;;;19.49;98.12
50430;BME280;36359;41.556;-8.418;2022-09-09T08:57:30;100568.22;;;19.67;95.61
50430;BME280;36359;41.556;-8.418;2022-09-09T08:59:57;100561.50;;;19.42;97.47
50430;BME280;36359;41.556;-8.418;2022-09-09T09:05:36;100580.97;;;19.12;99.60
50430;BME280;36359;41.556;-8.418;2022-09-09T09:10:59;100577.25;;;19.26;99.24
50430;BME280;36359;41.556;-8.418;2022-09-09T09:19:04;100578.44;;;19.17;100.00
50430;BME280;36359;41.556;-8.418;2022-09-09T09:21:43;100575.84;;;19.37;98.65
50430;BME280;36359;41.556;-8.418;2022-09-09T09:26:50;100580.72;;;20.11;92.14
50430;BME280;36359;41.556;-8.418;2022-09-09T09:29:19;100582.59;;;20.59;88.91
50430;BME280;36359;41.556;-8.418;2022-09-09T09:31:52;100576.63;;;20.55;90.79
50430;BME280;36359;41.556;-8.418;2022-09-09T09:34:22;100592.59;;;20.80;87.31
50430;BME280;36359;41.556;-8.418;2022-09-09T09:39:37;100588.53;;;20.69;89.58
50430;BME280;36359;41.556;-8.418;2022-09-09T09:42:13;100603.38;;;20.81;88.67
50430;BME280;36359;41.556;-8.418;2022-09-09T09:47:16;100599.16;;;21.19;84.69
50430;BME280;36359;41.556;-8.418;2022-09-09T09:49:57;100602.97;;;21.31;84.63
50430;BME280;36359;41.556;-8.418;2022-09-09T09:52:29;100602.75;;;21.26;84.04
50430;BME280;36359;41.556;-8.418;2022-09-09T09:54:58;100608.91;;;21.15;85.61
50430;BME280;36359;41.556;-8.418;2022-09-09T09:57:29;100609.34;;;21.25;86.54
50430;BME280;36359;41.556;-8.418;2022-09-09T10:02:41;100604.84;;;21.64;81.62
50430;BME280;36359;41.556;-8.418;2022-09-09T10:05:23;100601.22;;;21.70;81.23
50430;BME280;36359;41.556;-8.418;2022-09-09T10:08:11;100604.66;;;21.59;82.33
50430;BME280;36359;41.556;-8.418;2022-09-09T10:19:01;100600.78;;;21.86;82.55
50430;BME280;36359;41.556;-8.418;2022-09-09T10:24:32;100605.84;;;21.89;80.53
50430;BME280;36359;41.556;-8.418;2022-09-09T10:30:19;100602.84;;;21.97;84.26
50430;BME280;36359;41.556;-8.418;2022-09-09T10:35:58;100603.31;;;21.94;81.52
50430;BME280;36359;41.556;-8.418;2022-09-09T10:38:49;100602.34;;;22.14;79.59
50430;BME280;36359;41.556;-8.418;2022-09-09T10:41:24;100591.50;;;22.26;78.65
50430;BME280;36359;41.556;-8.418;2022-09-09T10:44:18;100589.97;;;22.36;81.22
50430;BME280;36359;41.556;-8.418;2022-09-09T10:57:39;100591.00;;;22.74;74.80
50430;BME280;36359;41.556;-8.418;2022-09-09T11:00:23;100581.56;;;22.81;74.29
50430;BME280;36359;41.556;-8.418;2022-09-09T11:02:58;100589.69;;;22.76;75.02
50430;BME280;36359;41.556;-8.418;2022-09-09T11:05:45;100587.59;;;22.72;73.43
50430;BME280;36359;41.556;-8.418;2022-09-09T11:08:19;100574.75;;;22.84;73.38
50430;BME280;36359;41.556;-8.418;2022-09-09T11:10:53;100581.31;;;23.15;72.26
50430;BME280;36359;41.556;-8.418;2022-09-09T11:13:39;100578.84;;;23.50;70.70
50430;BME280;36359;41.556;-8.418;2022-09-09T11:16:28;100577.00;;;23.44;68.92
50430;BME280;36359;41.556;-8.418;2022-09-09T11:19:29;100559.63;;;23.37;66.76
50430;BME280;36359;41.556;-8.418;2022-09-09T11:22:08;100564.72;;;23.58;65.47
50430;BME280;36359;41.556;-8.418;2022-09-09T11:24:45;100553.19;;;23.98;62.71
50430;BME280;36359;41.556;-8.418;2022-09-09T11:27:26;100553.16;;;23.61;66.30
50430;BME280;36359;41.556;-8.418;2022-09-09T11:41:08;100557.19;;;24.32;58.23
50430;BME280;36359;41.556;-8.418;2022-09-09T11:43:53;100551.91;;;24.31;60.28
50430;BME280;36359;41.556;-8.418;2022-09-09T11:46:31;100546.06;;;24.20;61.98
50430;BME280;36359;41.556;-8.418;2022-09-09T11:49:01;100547.34;;;24.06;62.87
50430;BME280;36359;41.556;-8.418;2022-09-09T11:51:29;100543.28;;;23.72;66.24
50430;BME280;36359;41.556;-8.418;2022-09-09T11:53:59;100538.47;;;24.16;61.22
50430;BME280;36359;41.556;-8.418;2022-09-09T11:56:32;100548.97;;;24.25;61.62
50430;BME280;36359;41.556;-8.418;2022-09-09T12:14:55;100528.78;;;24.90;55.59
50430;BME280;36359;41.556;-8.418;2022-09-09T12:17:22;100527.75;;;25.03;57.49
50430;BME280;36359;41.556;-8.418;2022-09-09T12:22:46;100529.00;;;24.65;59.96
50430;BME280;36359;41.556;-8.418;2022-09-09T12:28:19;100522.72;;;25.24;55.17
50430;BME280;36359;41.556;-8.418;2022-09-09T12:33:20;100518.41;;;24.62;59.00
50430;BME280;36359;41.556;-8.418;2022-09-09T12:35:55;100511.81;;;25.10;46.12
50430;BME280;36359;41.556;-8.418;2022-09-09T12:38:39;100506.13;;;25.05;50.97
50430;BME280;36359;41.556;-8.418;2022-09-09T12:41:15;100509.75;;;25.29;43.78
50430;BME280;36359;41.556;-8.418;2022-09-09T12:43:44;100503.81;;;25.49;47.52
50430;BME280;36359;41.556;-8.418;2022-09-09T12:46:21;100509.19;;;25.15;53.44
50430;BME280;36359;41.556;-8.418;2022-09-09T12:48:48;100507.69;;;25.60;44.54
50430;BME280;36359;41.556;-8.418;2022-09-09T12:53:51;100511.19;;;26.08;43.52
50430;BME280;36359;41.556;-8.418;2022-09-09T12:56:22;100513.56;;;26.16;45.53
50430;BME280;36359;41.556;-8.418;2022-09-09T12:58:51;100508.75;;;26.40;43.53
50430;BME280;36359;41.556;-8.418;2022-09-09T13:03:51;100511.00;;;25.97;47.99
50430;BME280;36359;41.556;-8.418;2022-09-09T13:06:28;100504.59;;;25.85;50.30
50430;BME280;36359;41.556;-8.418;2022-09-09T13:08:57;100505.72;;;25.84;48.92
50430;BME280;36359;41.556;-8.418;2022-09-09T13:11:41;100506.06;;;25.76;47.91
50430;BME280;36359;41.556;-8.418;2022-09-09T13:14:28;100504.59;;;25.85;50.55
50430;BME280;36359;41.556;-8.418;2022-09-09T13:16:57;100493.00;;;25.88;43.50
50430;BME280;36359;41.556;-8.418;2022-09-09T13:19:24;100502.06;;;26.24;42.57
50430;BME280;36359;41.556;-8.418;2022-09-09T13:21:53;100497.97;;;26.15;49.16
50430;BME280;36359;41.556;-8.418;2022-09-09T13:24:30;100489.16;;;26.18;47.54
50430;BME280;36359;41.556;-8.418;2022-09-09T13:26:58;100482.59;;;26.41;43.30
50430;BME280;36359;41.556;-8.418;2022-09-09T13:29:27;100477.59;;;26.55;44.07
50430;BME280;36359;41.556;-8.418;2022-09-09T13:31:53;100474.00;;;26.42;48.12
50430;BME280;36359;41.556;-8.418;2022-09-09T13:34:29;100480.97;;;25.82;49.29
50430;BME280;36359;41.556;-8.418;2022-09-09T13:37:00;100480.81;;;26.18;47.23
50430;BME280;36359;41.556;-8.418;2022-09-09T13:39:28;100476.53;;;26.27;46.13
50430;BME280;36359;41.556;-8.418;2022-09-09T13:41:54;100471.97;;;26.38;44.08
50430;BME280;36359;41.556;-8.418;2022-09-09T13:44:26;100478.72;;;26.25;48.31
50430;BME280;36359;41.556;-8.418;2022-09-09T13:47:03;100469.47;;;26.36;45.61
50430;BME280;36359;41.556;-8.418;2022-09-09T13:49:30;100473.81;;;26.61;42.10
50430;BME280;36359;41.556;-8.418;2022-09-09T13:52:12;100469.25;;;26.26;45.94
50430;BME280;36359;41.556;-8.418;2022-09-09T13:54:39;100471.09;;;26.66;41.60
50430;BME280;36359;41.556;-8.418;2022-09-09T13:57:05;100466.75;;;27.09;39.58
50430;BME280;36359;41.556;-8.418;2022-09-09T13:59:31;100465.59;;;27.05;39.90
50430;BME280;36359;41.556;-8.418;2022-09-09T14:01:57;100463.41;;;27.07;41.14
50430;BME280;36359;41.556;-8.418;2022-09-09T14:04:23;100458.19;;;26.93;44.00
50430;BME280;36359;41.556;-8.418;2022-09-09T14:06:50;100457.94;;;26.95;45.18
50430;BME280;36359;41.556;-8.418;2022-09-09T14:09:17;100445.44;;;26.98;45.70
50430;BME280;36359;41.556;-8.418;2022-09-09T14:11:44;100444.94;;;27.01;40.01
50430;BME280;36359;41.556;-8.418;2022-09-09T14:14:11;100442.53;;;26.54;46.79
50430;BME280;36359;41.556;-8.418;2022-09-09T14:16:37;100446.91;;;26.83;41.60
50430;BME280;36359;41.556;-8.418;2022-09-09T14:19:03;100443.19;;;26.78;41.97
50430;BME280;36359;41.556;-8.418;2022-09-09T14:21:29;100437.72;;;26.66;43.33
50430;BME280;36359;41.556;-8.418;2022-09-09T14:23:55;100441.56;;;27.15;41.94
50430;BME280;36359;41.556;-8.418;2022-09-09T14:26:24;100439.09;;;27.02;42.76
50430;BME280;36359;41.556;-8.418;2022-09-09T14:28:50;100435.91;;;26.93;44.67
50430;BME280;36359;41.556;-8.418;2022-09-09T14:31:17;100428.09;;;27.29;40.24
50430;BME280;36359;41.556;-8.418;2022-09-09T14:33:44;100435.78;;;27.05;45.85
50430;BME280;36359;41.556;-8.418;2022-09-09T14:36:10;100435.78;;;27.05;43.67
50430;BME280;36359;41.556;-8.418;2022-09-09T14:38:37;100432.09;;;27.00;42.30
50430;BME280;36359;41.556;-8.418;2022-09-09T14:41:12;100425.19;;;27.02;44.79
50430;BME280;36359;41.556;-8.418;2022-09-09T14:43:39;100424.34;;;27.40;39.90
50430;BME280;36359;41.556;-8.418;2022-09-09T14:46:10;100423.06;;;27.48;44.20
50430;BME280;36359;41.556;-8.418;2022-09-09T15:05:57;100403.34;;;27.55;53.19
50430;BME280;36359;41.556;-8.418;2022-09-09T15:08:24;100404.75;;;27.57;55.82
50430;BME280;36359;41.556;-8.418;2022-09-09T15:10:50;100404.25;;;27.00;53.77
50430;BME280;36359;41.556;-8.418;2022-09-09T15:13:16;100397.97;;;26.87;52.12
50430;BME280;36359;41.556;-8.418;2022-09-09T15:15:42;100396.09;;;26.93;56.61
50430;BME280;36359;41.556;-8.418;2022-09-09T15:18:09;100403.59;;;27.31;55.95
50430;BME280;36359;41.556;-8.418;2022-09-09T15:20:35;100399.91;;;27.26;54.64
50430;BME280;36359;41.556;-8.418;2022-09-09T15:23:03;100395.38;;;27.03;57.57
50430;BME280;36359;41.556;-8.418;2022-09-09T15:25:28;100401.41;;;26.94;58.11
50430;BME280;36359;41.556;-8.418;2022-09-09T15:27:54;100398.94;;;27.15;56.97
50430;BME280;36359;41.556;-8.418;2022-09-09T15:30:21;100394.25;;;26.82;57.32
50430;BME280;36359;41.556;-8.418;2022-09-09T15:32:47;100391.00;;;26.68;57.86
50430;BME280;36359;41.556;-8.418;2022-09-09T15:35:12;100386.50;;;26.84;57.29
50430;BME280;36359;41.556;-8.418;2022-09-09T15:37:38;100375.16;;;26.68;58.86
50430;BME280;36359;41.556;-8.418;2022-09-09T15:40:04;100379.16;;;26.94;57.37
50430;BME280;36359;41.556;-8.418;2022-09-09T15:42:30;100375.63;;;26.48;58.87